DLH64 UACC-EDDF
Flight info
| Callsign | DLH64 |
|---|---|
| Flight time | N/A |
| Altitude | 36000 |
| Route | VETUB7G VETUB P574 OGANU N55 MASAV N161 GASBI/N0479F360 N161 LEYLA N644 BADIR DCT NOLGA UG261 TBN UM11 CRM UL746 ODERO DCT OPT DCT ALOXU DCT GANNA DCT PATAK DCT KATQA DCT RAPET T170 GAPLA T178 KERAX KERAX5D |
| Aircraft | A346/H-SDE2E3FGHIJ3J4J5M1RWXY/LB1D1 |
Departure
| Time | 2026-04-26 11:50 |
|---|---|
| Airport | Nursultan Nazarbayev International Airport (UACC) |
Arrival
| Time | N/A |
|---|---|
| Airport | Frankfurt Main Airport (EDDF) |
| Time | Latitude | Longitude | Altitude | Speed | Heading |
|---|---|---|---|---|---|
| 2026-04-26 11:42 | 51.02549 | 71.46086 | 1179 ft | 0 kts | 358° |
| 2026-04-26 11:44 | 51.02554 | 71.46090 | 1173 ft | 3 kts | 37° |
| 2026-04-26 11:45 | 51.02545 | 71.46175 | 1174 ft | 11 kts | 98° |
| 2026-04-26 11:45 | 51.02549 | 71.46302 | 1173 ft | 13 kts | 66° |
| 2026-04-26 11:45 | 51.02602 | 71.46407 | 1176 ft | 12 kts | 45° |
| 2026-04-26 11:45 | 51.02666 | 71.46510 | 1174 ft | 14 kts | 45° |
| 2026-04-26 11:46 | 51.02686 | 71.46637 | 1174 ft | 12 kts | 113° |
| 2026-04-26 11:46 | 51.02667 | 71.46772 | 1176 ft | 14 kts | 69° |
| 2026-04-26 11:46 | 51.02728 | 71.46896 | 1174 ft | 15 kts | 46° |
| 2026-04-26 11:46 | 51.02806 | 71.47017 | 1175 ft | 16 kts | 44° |
| 2026-04-26 11:47 | 51.02889 | 71.47146 | 1174 ft | 17 kts | 44° |
| 2026-04-26 11:47 | 51.02979 | 71.47286 | 1174 ft | 18 kts | 44° |
| 2026-04-26 11:47 | 51.03073 | 71.47434 | 1175 ft | 20 kts | 45° |
| 2026-04-26 11:47 | 51.03179 | 71.47590 | 1174 ft | 22 kts | 44° |
| 2026-04-26 11:48 | 51.03280 | 71.47752 | 1173 ft | 18 kts | 45° |
| 2026-04-26 11:48 | 51.03371 | 71.47896 | 1172 ft | 16 kts | 45° |
| 2026-04-26 11:48 | 51.03422 | 71.48052 | 1171 ft | 17 kts | 78° |
| 2026-04-26 11:48 | 51.03424 | 71.48240 | 1171 ft | 14 kts | 104° |
| 2026-04-26 11:49 | 51.03360 | 71.48304 | 1172 ft | 13 kts | 193° |
| 2026-04-26 11:49 | 51.03298 | 71.48243 | 1175 ft | 10 kts | 223° |
| 2026-04-26 11:49 | 51.03294 | 71.48237 | 1171 ft | 0 kts | 223° |
| 2026-04-26 11:49 | 51.03164 | 71.48037 | 1173 ft | 56 kts | 224° |
| 2026-04-26 11:50 | 51.02743 | 71.47382 | 1174 ft | 112 kts | 224° |
| 2026-04-26 11:50 | 51.02067 | 71.46333 | 1175 ft | 158 kts | 224° |
| 2026-04-26 11:50 | 51.01169 | 71.44994 | 1251 ft | 190 kts | 224° |
| 2026-04-26 11:50 | 51.00182 | 71.43572 | 1790 ft | 192 kts | 227° |
| 2026-04-26 11:51 | 50.99219 | 71.42103 | 2464 ft | 190 kts | 232° |
| 2026-04-26 11:51 | 50.98316 | 71.40596 | 3097 ft | 189 kts | 233° |
| 2026-04-26 11:51 | 50.97388 | 71.39026 | 3394 ft | 202 kts | 232° |
| 2026-04-26 11:51 | 50.96395 | 71.37343 | 3676 ft | 214 kts | 238° |
| 2026-04-26 11:52 | 50.95831 | 71.35194 | 3941 ft | 219 kts | 269° |
| 2026-04-26 11:52 | 50.96076 | 71.32773 | 4296 ft | 229 kts | 293° |
| 2026-04-26 11:52 | 50.96675 | 71.30379 | 4889 ft | 235 kts | 292° |
| 2026-04-26 11:52 | 50.97028 | 71.27835 | 5556 ft | 243 kts | 268° |
| 2026-04-26 11:53 | 50.96536 | 71.25225 | 6263 ft | 250 kts | 252° |
| 2026-04-26 11:53 | 50.95872 | 71.22663 | 6992 ft | 252 kts | 252° |
| 2026-04-26 11:53 | 50.95218 | 71.20061 | 7730 ft | 253 kts | 252° |
| 2026-04-26 11:54 | 50.93931 | 71.14832 | 9236 ft | 258 kts | 251° |
| 2026-04-26 11:54 | 50.93278 | 71.12162 | 9994 ft | 261 kts | 251° |
| 2026-04-26 11:54 | 50.92617 | 71.09449 | 10591 ft | 268 kts | 251° |
| 2026-04-26 11:54 | 50.92015 | 71.06970 | 10906 ft | 282 kts | 251° |
| 2026-04-26 11:55 | 50.91501 | 71.04854 | 11133 ft | 295 kts | 250° |
| 2026-04-26 11:55 | 50.90742 | 71.01735 | 11450 ft | 311 kts | 250° |
| 2026-04-26 11:55 | 50.89940 | 70.98442 | 11763 ft | 327 kts | 250° |
| 2026-04-26 11:55 | 50.89099 | 70.94997 | 12080 ft | 343 kts | 250° |
| 2026-04-26 11:56 | 50.88235 | 70.91460 | 12610 ft | 351 kts | 250° |
| 2026-04-26 11:56 | 50.87350 | 70.87840 | 13407 ft | 353 kts | 249° |
| 2026-04-26 11:56 | 50.86460 | 70.84203 | 14175 ft | 354 kts | 249° |
| 2026-04-26 11:56 | 50.85561 | 70.80535 | 14854 ft | 357 kts | 249° |
| 2026-04-26 11:57 | 50.84668 | 70.76899 | 15515 ft | 359 kts | 249° |